createdAt,value
2023-01-20T00:02:02.374Z,100708.06
2023-01-20T00:04:33.811Z,100716.00
2023-01-20T00:07:02.877Z,100718.50
2023-01-20T00:09:30.949Z,100721.13
2023-01-20T00:12:06.350Z,100717.72
2023-01-20T00:14:40.342Z,100696.81
2023-01-20T00:17:09.714Z,100712.50
2023-01-20T00:19:42.190Z,100714.97
2023-01-20T00:22:12.251Z,100717.59
2023-01-20T00:24:40.308Z,100716.88
2023-01-20T00:27:08.686Z,100727.44
2023-01-20T00:29:38.596Z,100720.50
2023-01-20T00:32:07.591Z,100718.81
2023-01-20T00:34:49.958Z,100717.06
2023-01-20T00:37:18.005Z,100726.56
2023-01-20T00:39:46.200Z,100726.59
2023-01-20T00:42:14.161Z,100733.66
2023-01-20T00:44:42.130Z,100734.59
2023-01-20T00:47:09.999Z,100741.50
2023-01-20T00:49:38.274Z,100723.25
2023-01-20T00:52:07.926Z,100747.53
2023-01-20T00:54:35.895Z,100736.28
2023-01-20T00:57:03.754Z,100748.47
2023-01-20T00:59:33.063Z,100739.81
2023-01-20T01:02:01.177Z,100753.72
2023-01-20T01:04:29.199Z,100737.25
2023-01-20T01:06:57.339Z,100738.25
2023-01-20T01:09:27.501Z,100752.16
2023-01-20T01:11:55.838Z,100753.94
2023-01-20T01:14:23.841Z,100753.94
2023-01-20T01:16:51.774Z,100757.47
2023-01-20T01:19:20.252Z,100761.78
2023-01-20T01:21:48.178Z,100768.72
2023-01-20T01:24:17.262Z,100768.72
2023-01-20T01:26:46.789Z,100773.94
2023-01-20T01:29:14.813Z,100769.59
2023-01-20T01:31:42.695Z,100785.22
2023-01-20T01:34:10.969Z,100773.97
2023-01-20T01:36:39.166Z,100784.38
2023-01-20T01:39:11.056Z,100783.53
2023-01-20T01:41:42.167Z,100785.25
2023-01-20T01:44:13.357Z,100790.53
2023-01-20T01:46:46.163Z,100788.78
2023-01-20T01:49:19.428Z,100790.53
2023-01-20T01:51:55.826Z,100795.75
2023-01-20T01:54:29.035Z,100785.34
2023-01-20T01:57:11.051Z,100794.00
2023-01-20T01:59:55.452Z,100799.25
2023-01-20T02:02:24.115Z,100799.25
2023-01-20T02:04:53.356Z,100800.09
2023-01-20T02:07:22.972Z,100797.50
2023-01-20T02:09:51.112Z,100794.00
2023-01-20T02:12:21.968Z,100801.84
2023-01-20T02:14:53.556Z,100807.94
2023-01-20T02:17:31.514Z,100778.38
2023-01-20T02:20:38.362Z,100805.34
2023-01-20T02:23:12.542Z,100787.09
2023-01-20T02:26:09.684Z,100787.13
2023-01-20T02:29:27.487Z,100805.38
2023-01-20T02:32:20.151Z,100803.63
2023-01-20T02:34:59.071Z,100806.22
2023-01-20T02:37:30.051Z,100803.63
2023-01-20T02:40:13.724Z,100814.91
2023-01-20T02:42:46.999Z,100811.44
2023-01-20T02:45:21.684Z,100815.75
2023-01-20T02:47:56.978Z,100817.47
2023-01-20T02:50:34.179Z,100824.41
2023-01-20T02:53:05.556Z,100811.38
2023-01-20T02:55:39.449Z,100802.66
2023-01-20T02:58:12.164Z,100807.91
2023-01-20T03:00:45.541Z,100801.78
2023-01-20T03:03:20.896Z,100802.66
2023-01-20T03:05:53.110Z,100786.94
2023-01-20T03:08:23.749Z,100797.41
2023-01-20T03:10:55.806Z,100815.59
2023-01-20T03:13:31.222Z,100812.13
2023-01-20T03:16:02.511Z,100803.38
2023-01-20T03:18:46.474Z,100816.47
2023-01-20T03:21:17.861Z,100800.81
2023-01-20T03:23:48.812Z,100821.66
2023-01-20T03:26:19.167Z,100820.78
2023-01-20T03:28:48.863Z,100811.22
2023-01-20T03:31:22.761Z,100827.78
2023-01-20T03:33:55.826Z,100830.38
2023-01-20T03:36:28.504Z,100828.69
2023-01-20T03:38:58.441Z,100841.66
2023-01-20T03:41:34.895Z,100835.56
2023-01-20T03:44:12.981Z,100833.81
2023-01-20T03:46:47.214Z,100839.00
2023-01-20T03:49:26.838Z,100830.34
2023-01-20T03:52:03.225Z,100832.06
2023-01-20T03:54:38.139Z,100832.06
2023-01-20T03:57:12.729Z,100832.06
2023-01-20T03:59:44.440Z,100834.66
2023-01-20T04:02:14.153Z,100817.28
2023-01-20T04:04:46.122Z,100836.44
2023-01-20T04:07:19.639Z,100833.81
2023-01-20T04:09:53.504Z,100839.06
2023-01-20T04:12:21.698Z,100843.38
2023-01-20T04:15:08.881Z,100833.00
2023-01-20T04:17:44.853Z,100849.50
2023-01-20T04:20:27.792Z,100840.84
2023-01-20T04:23:04.374Z,100847.78
2023-01-20T04:25:33.962Z,100846.03
2023-01-20T04:28:09.809Z,100847.81
2023-01-20T04:30:37.717Z,100847.78
2023-01-20T04:33:06.168Z,100861.66
2023-01-20T04:35:36.510Z,100852.13
2023-01-20T04:38:06.799Z,100844.22
2023-01-20T04:40:34.848Z,100864.22
2023-01-20T04:43:02.926Z,100864.28
2023-01-20T04:45:33.417Z,100852.94
2023-01-20T04:48:01.346Z,100862.53
2023-01-20T04:50:29.268Z,100869.50
2023-01-20T04:53:00.872Z,100860.81
2023-01-20T04:55:29.140Z,100868.59
2023-01-20T04:57:58.176Z,100866.84
2023-01-20T05:00:26.808Z,100866.88
2023-01-20T05:02:59.928Z,100867.72
2023-01-20T05:05:28.281Z,100867.75
2023-01-20T05:07:57.149Z,100867.72
2023-01-20T05:10:26.505Z,100867.69
2023-01-20T05:12:57.133Z,100872.09
2023-01-20T05:15:25.129Z,100866.00
2023-01-20T05:17:53.544Z,100882.50
2023-01-20T05:20:21.802Z,100883.38
2023-01-20T05:22:49.897Z,100884.25
2023-01-20T05:25:17.960Z,100889.44
2023-01-20T05:27:47.217Z,100896.41
2023-01-20T05:30:15.562Z,100899.00
2023-01-20T05:32:45.595Z,100892.91
2023-01-20T05:35:14.733Z,100893.78
2023-01-20T05:37:43.079Z,100881.63
2023-01-20T05:40:12.394Z,100904.22
2023-01-20T05:42:40.959Z,100908.56
2023-01-20T05:45:11.199Z,100905.09
2023-01-20T05:47:39.301Z,100900.75
2023-01-20T05:50:09.576Z,100908.53
2023-01-20T05:52:37.649Z,100911.19
2023-01-20T05:55:06.222Z,100908.53
2023-01-20T05:57:34.293Z,100908.53
2023-01-20T06:00:02.169Z,100892.78
2023-01-20T06:02:33.225Z,100920.69
2023-01-20T06:05:01.917Z,100918.09
2023-01-20T06:07:30.506Z,100913.75
2023-01-20T06:09:58.834Z,100922.47
2023-01-20T06:12:27.490Z,100924.19
2023-01-20T06:14:57.453Z,100917.25
2023-01-20T06:17:25.599Z,100912.84
2023-01-20T06:19:55.366Z,100911.16
2023-01-20T06:22:23.471Z,100919.84
2023-01-20T06:24:54.025Z,100917.25
2023-01-20T06:27:24.648Z,100916.34
2023-01-20T06:29:54.287Z,100925.94
2023-01-20T06:32:22.563Z,100929.41
2023-01-20T06:34:53.022Z,100931.13
2023-01-20T06:37:22.398Z,100934.56
2023-01-20T06:39:50.441Z,100929.38
2023-01-20T06:42:18.661Z,100937.19
2023-01-20T06:44:46.754Z,100935.50
2023-01-20T06:47:14.693Z,100938.03
2023-01-20T06:49:43.768Z,100922.38
2023-01-20T06:52:11.745Z,100944.16
2023-01-20T06:54:41.085Z,100949.41
2023-01-20T06:57:10.192Z,100940.66
2023-01-20T06:59:38.425Z,100951.09
2023-01-20T07:02:06.769Z,100952.78
2023-01-20T07:04:34.827Z,100968.47
2023-01-20T07:07:02.633Z,100972.81
2023-01-20T07:09:30.565Z,100978.91
2023-01-20T07:11:59.978Z,100982.41
2023-01-20T07:14:28.115Z,100981.53
2023-01-20T07:16:56.435Z,101000.63
2023-01-20T07:19:24.491Z,101001.47
2023-01-20T07:21:52.492Z,101005.84
2023-01-20T07:24:20.595Z,101005.84
2023-01-20T07:26:48.480Z,101004.94
2023-01-20T07:29:18.054Z,101000.56
2023-01-20T07:31:46.408Z,100999.69
2023-01-20T07:34:14.353Z,100999.69
2023-01-20T07:36:43.278Z,101020.59
2023-01-20T07:39:13.176Z,101021.50
2023-01-20T07:41:41.365Z,101026.72
2023-01-20T07:44:14.481Z,101012.75
2023-01-20T07:46:46.083Z,101050.22
2023-01-20T07:49:14.289Z,101036.22
2023-01-20T07:51:43.582Z,101056.28
2023-01-20T07:54:12.878Z,101044.03
2023-01-20T07:56:41.183Z,101065.84
2023-01-20T07:59:13.127Z,101050.09
2023-01-20T08:01:41.353Z,101065.84
2023-01-20T08:04:10.800Z,101078.91
2023-01-20T08:06:40.323Z,101076.34
2023-01-20T08:09:12.084Z,101073.69
2023-01-20T08:11:40.237Z,101060.59
2023-01-20T08:14:08.469Z,101095.41
2023-01-20T08:16:37.780Z,101099.78
2023-01-20T08:19:05.788Z,101094.63
2023-01-20T08:21:35.183Z,101096.31
2023-01-20T08:24:06.685Z,101109.38
2023-01-20T08:26:36.917Z,101117.22
2023-01-20T08:29:07.465Z,101112.03
2023-01-20T08:31:39.682Z,101122.44
2023-01-20T08:34:26.327Z,101122.44
2023-01-20T08:37:16.159Z,101128.56
2023-01-20T08:39:44.318Z,101121.59
2023-01-20T08:42:19.543Z,101123.34
2023-01-20T08:44:52.972Z,101123.38
2023-01-20T08:47:30.064Z,101125.06
2023-01-20T08:50:00.401Z,101147.69
2023-01-20T08:52:29.752Z,101139.84
2023-01-20T08:55:03.799Z,101152.97
2023-01-20T08:57:31.644Z,101150.38
2023-01-20T09:00:00.646Z,101150.38
2023-01-20T09:02:29.840Z,101152.13
2023-01-20T09:07:59.850Z,101161.69
2023-01-20T09:10:28.036Z,101161.72
2023-01-20T09:12:58.262Z,101148.59
2023-01-20T09:15:28.990Z,101164.31
2023-01-20T09:17:58.733Z,101173.88
2023-01-20T09:20:28.904Z,101191.31
2023-01-20T09:23:02.995Z,101192.97
2023-01-20T09:25:31.344Z,101198.31
2023-01-20T09:28:01.961Z,101213.91
2023-01-20T09:30:29.824Z,101218.22
2023-01-20T09:32:59.592Z,101220.88
2023-01-20T09:35:28.079Z,101224.44
2023-01-20T09:38:13.705Z,101226.06
2023-01-20T09:41:11.713Z,101235.59
2023-01-20T09:43:59.924Z,101234.00
2023-01-20T09:47:20.468Z,101231.22
2023-01-20T09:50:22.601Z,101242.69
2023-01-20T09:53:04.907Z,101238.25
2023-01-20T09:55:42.699Z,101225.16
2023-01-20T09:58:24.519Z,101241.63
2023-01-20T10:00:58.853Z,101243.38
2023-01-20T10:03:37.543Z,101268.81
2023-01-20T10:06:10.855Z,101268.81
2023-01-20T10:09:03.697Z,101285.34
2023-01-20T10:11:38.543Z,101266.09
2023-01-20T10:14:16.380Z,101285.41
2023-01-20T10:16:50.707Z,101294.03
2023-01-20T10:19:28.073Z,101294.09
2023-01-20T10:22:03.332Z,101302.03
2023-01-20T10:24:35.364Z,101292.41
2023-01-20T10:27:06.132Z,101314.28
2023-01-20T10:29:37.578Z,101299.41
2023-01-20T10:32:13.091Z,101322.09
2023-01-20T10:34:46.330Z,101337.72
2023-01-20T10:37:16.112Z,101345.78
2023-01-20T10:39:50.887Z,101340.50
2023-01-20T10:42:20.143Z,101354.38
2023-01-20T10:44:52.911Z,101359.56
2023-01-20T10:47:27.082Z,101365.53
2023-01-20T10:50:18.274Z,101374.34
2023-01-20T10:53:07.159Z,101383.06
2023-01-20T10:55:45.825Z,101392.47
2023-01-20T10:58:22.350Z,101396.78
2023-01-20T11:00:52.727Z,101404.63
2023-01-20T11:03:23.941Z,101408.09
2023-01-20T11:05:53.126Z,101423.88
2023-01-20T11:08:23.428Z,101443.00
2023-01-20T11:10:55.733Z,101433.38
2023-01-20T11:13:24.505Z,101453.41
2023-01-20T11:15:57.716Z,101457.03
2023-01-20T11:18:29.022Z,101459.56
2023-01-20T11:21:01.687Z,101480.50
2023-01-20T11:23:38.163Z,101484.84
2023-01-20T11:26:10.993Z,101496.16
2023-01-20T11:28:52.640Z,101507.47
2023-01-20T11:31:24.043Z,101511.88
2023-01-20T11:34:00.199Z,101538.84
2023-01-20T11:36:28.793Z,101546.63
2023-01-20T11:38:58.473Z,101548.41
2023-01-20T11:41:28.578Z,101568.53
2023-01-20T11:43:58.460Z,101561.53
2023-01-20T11:46:31.249Z,101581.56
2023-01-20T11:49:20.182Z,101589.34
2023-01-20T11:51:51.813Z,101599.88
2023-01-20T11:54:22.340Z,101610.44
2023-01-20T11:56:55.672Z,101610.50
2023-01-20T11:59:29.866Z,101603.41
2023-01-20T12:02:02.472Z,101612.16
2023-01-20T12:05:03.360Z,101613.78
2023-01-20T12:07:36.680Z,101620.66
2023-01-20T12:10:16.054Z,101618.03
2023-01-20T12:13:07.561Z,101633.81
2023-01-20T12:15:41.876Z,101623.38
2023-01-20T12:18:17.863Z,101638.13
2023-01-20T12:20:55.869Z,101636.25
2023-01-20T12:23:34.621Z,101629.22
2023-01-20T12:26:05.217Z,101652.84
2023-01-20T12:28:40.030Z,101620.63
2023-01-20T12:31:12.409Z,101624.13
2023-01-20T12:33:45.513Z,101638.94
2023-01-20T12:36:38.375Z,101638.91
2023-01-20T12:39:39.684Z,101626.72
2023-01-20T12:42:52.165Z,101652.19
2023-01-20T12:45:31.459Z,101657.41
2023-01-20T12:48:32.152Z,101664.31
2023-01-20T12:51:37.592Z,101661.75
2023-01-20T12:54:30.526Z,101667.66
2023-01-20T12:57:24.921Z,101660.63
2023-01-20T13:00:04.855Z,101664.06
2023-01-20T13:02:52.386Z,101685.13
2023-01-20T13:05:46.100Z,101670.16
2023-01-20T13:08:25.691Z,101676.25
2023-01-20T13:11:11.176Z,101699.16
2023-01-20T13:13:57.373Z,101703.44
2023-01-20T13:16:35.287Z,101705.19
2023-01-20T13:19:13.624Z,101702.34
2023-01-20T13:21:42.804Z,101704.00
2023-01-20T13:24:24.571Z,101729.53
2023-01-20T13:26:53.717Z,101724.31
2023-01-20T13:29:43.752Z,101723.53
2023-01-20T13:32:32.230Z,101724.22
2023-01-20T13:35:03.851Z,101718.03
2023-01-20T13:37:35.541Z,101730.19
2023-01-20T13:40:33.081Z,101733.78
2023-01-20T13:43:01.170Z,101752.84
2023-01-20T13:45:31.539Z,101743.47
2023-01-20T13:48:03.772Z,101725.88
2023-01-20T13:50:34.215Z,101746.00
2023-01-20T13:53:16.144Z,101758.25
2023-01-20T13:56:26.325Z,101739.72
2023-01-20T13:58:54.924Z,101757.16
2023-01-20T14:01:22.996Z,101757.84
2023-01-20T14:04:04.167Z,101796.31
2023-01-20T14:06:34.234Z,101800.72
2023-01-20T14:09:03.829Z,101802.47
2023-01-20T14:11:33.500Z,101805.13
2023-01-20T14:14:05.365Z,101809.56
2023-01-20T14:16:40.489Z,101798.06
2023-01-20T14:19:23.567Z,101797.75
2023-01-20T14:21:54.667Z,101808.44
2023-01-20T14:24:32.742Z,101821.53
2023-01-20T14:27:18.875Z,101813.75
2023-01-20T14:30:00.484Z,101811.94
2023-01-20T14:32:32.761Z,101844.31
2023-01-20T14:35:01.824Z,101835.50
2023-01-20T14:37:32.053Z,101838.06
2023-01-20T14:40:06.891Z,101837.84
2023-01-20T14:42:38.663Z,101862.41
2023-01-20T14:45:22.089Z,101871.03
2023-01-20T14:47:54.417Z,101873.56
2023-01-20T14:50:23.959Z,101867.50
2023-01-20T14:52:52.448Z,101875.22
2023-01-20T14:55:31.806Z,101874.25
2023-01-20T14:58:08.375Z,101887.25
2023-01-20T15:00:38.269Z,101910.16
2023-01-20T15:03:12.386Z,101911.03
2023-01-20T15:05:43.025Z,101931.00
2023-01-20T15:08:24.445Z,101923.00
2023-01-20T15:11:23.612Z,101943.97
2023-01-20T15:14:12.914Z,101935.34
2023-01-20T15:16:49.336Z,101919.47
2023-01-20T15:19:36.079Z,101944.03
2023-01-20T15:22:28.293Z,101957.94
2023-01-20T15:25:04.459Z,101952.53
2023-01-20T15:27:35.112Z,101973.53
2023-01-20T15:30:18.818Z,101984.72
2023-01-20T15:32:49.220Z,101972.47
2023-01-20T15:35:20.078Z,101996.00
2023-01-20T15:37:48.447Z,101969.69
2023-01-20T15:40:19.988Z,101998.50
2023-01-20T15:42:48.809Z,102002.88
2023-01-20T15:45:20.165Z,101990.56
2023-01-20T15:47:49.758Z,101998.34
2023-01-20T15:50:20.682Z,102029.88
2023-01-20T15:52:57.924Z,102036.88
2023-01-20T15:55:27.877Z,102023.56
2023-01-20T15:57:55.841Z,102044.56
2023-01-20T16:00:29.697Z,102032.28
2023-01-20T16:02:57.662Z,102056.81
2023-01-20T16:05:26.367Z,102065.50
2023-01-20T16:07:57.933Z,102070.69
2023-01-20T16:10:26.049Z,102076.81
2023-01-20T16:12:56.425Z,102083.72
2023-01-20T16:15:26.613Z,102086.38
2023-01-20T16:17:57.038Z,102095.09
2023-01-20T16:20:27.409Z,102101.25
2023-01-20T16:22:56.720Z,102103.78
2023-01-20T16:25:25.767Z,102105.47
2023-01-20T16:27:55.755Z,102113.34
2023-01-20T16:30:24.801Z,102108.88
2023-01-20T16:32:53.198Z,102108.94
2023-01-20T16:35:23.682Z,102128.03
2023-01-20T16:37:52.418Z,102129.88
2023-01-20T16:40:22.295Z,102142.81
2023-01-20T16:42:50.324Z,102151.63
2023-01-20T16:45:29.098Z,102152.44
2023-01-20T16:47:57.366Z,102153.44
2023-01-20T16:50:28.336Z,102170.72
2023-01-20T16:52:56.939Z,102171.63
2023-01-20T16:55:25.402Z,102175.88
2023-01-20T16:57:53.265Z,102181.19
2023-01-20T17:00:22.587Z,102173.31
2023-01-20T17:03:20.956Z,102182.09
2023-01-20T17:06:09.882Z,102181.25
2023-01-20T17:08:55.441Z,102187.28
2023-01-20T17:11:35.858Z,102190.81
2023-01-20T17:14:05.665Z,102188.16
2023-01-20T17:16:35.480Z,102194.22
2023-01-20T17:19:05.492Z,102210.88
2023-01-20T17:21:39.941Z,102206.50
2023-01-20T17:24:13.247Z,102209.06
2023-01-20T17:26:44.370Z,102209.13
2023-01-20T17:29:14.529Z,102208.16
2023-01-20T17:31:45.760Z,102203.81
2023-01-20T17:34:14.182Z,102211.81
2023-01-20T17:36:43.571Z,102225.78
2023-01-20T17:39:12.925Z,102209.81
2023-01-20T17:41:41.447Z,102234.41
2023-01-20T17:44:09.644Z,102228.16
2023-01-20T17:46:40.210Z,102246.66
2023-01-20T17:49:09.937Z,102223.66
2023-01-20T17:51:41.378Z,102244.84
2023-01-20T17:54:10.839Z,102253.47
2023-01-20T17:56:40.129Z,102246.56
2023-01-20T17:59:10.166Z,102272.72
2023-01-20T18:01:39.448Z,102273.53
2023-01-20T18:04:10.517Z,102269.09
2023-01-20T18:06:39.307Z,102265.41
2023-01-20T18:09:08.718Z,102275.91
2023-01-20T18:11:38.474Z,102285.56
2023-01-20T18:14:10.529Z,102276.59
2023-01-20T18:16:41.707Z,102309.06
2023-01-20T18:19:17.588Z,102311.66
2023-01-20T18:21:49.868Z,102305.31
2023-01-20T18:24:21.917Z,102289.50
2023-01-20T18:26:52.329Z,102313.25
2023-01-20T18:29:20.286Z,102323.03
2023-01-20T18:31:48.438Z,102307.09
2023-01-20T18:34:17.141Z,102324.53
2023-01-20T18:36:57.020Z,102307.78
2023-01-20T18:39:30.537Z,102326.34
2023-01-20T18:42:14.024Z,102305.13
2023-01-20T18:44:42.154Z,102332.28
2023-01-20T18:47:10.379Z,102327.78
2023-01-20T18:49:38.770Z,102350.56
2023-01-20T18:52:15.378Z,102362.81
2023-01-20T18:54:50.523Z,102357.47
2023-01-20T18:57:38.452Z,102346.88
2023-01-20T19:00:20.290Z,102365.56
2023-01-20T19:02:52.490Z,102369.78
2023-01-20T19:05:20.575Z,102365.31
2023-01-20T19:07:54.265Z,102373.25
2023-01-20T19:10:28.451Z,102380.34
2023-01-20T19:13:01.055Z,102374.13
2023-01-20T19:15:29.170Z,102383.91
2023-01-20T19:17:59.478Z,102393.56
2023-01-20T19:20:27.676Z,102398.69
2023-01-20T19:22:59.008Z,102382.78
2023-01-20T19:25:29.650Z,102417.00
2023-01-20T19:28:05.430Z,102409.16
2023-01-20T19:30:36.398Z,102413.50
2023-01-20T19:33:04.747Z,102415.13
2023-01-20T19:35:33.550Z,102421.09
2023-01-20T19:38:02.035Z,102405.06
2023-01-20T19:40:33.961Z,102438.41
2023-01-20T19:43:03.587Z,102438.31
2023-01-20T19:45:44.885Z,102409.97
2023-01-20T19:48:13.758Z,102454.63
2023-01-20T19:50:43.034Z,102438.53
2023-01-20T19:53:12.438Z,102454.97
2023-01-20T19:55:43.268Z,102439.25
2023-01-20T19:58:14.959Z,102455.78
2023-01-20T20:00:43.279Z,102460.13
2023-01-20T20:03:11.359Z,102459.03
2023-01-20T20:05:40.662Z,102459.66
2023-01-20T20:08:08.662Z,102472.53
2023-01-20T20:10:43.263Z,102476.19
2023-01-20T20:13:12.860Z,102484.78
2023-01-20T20:15:45.248Z,102472.28
2023-01-20T20:18:17.861Z,102493.97
2023-01-20T20:20:46.085Z,102489.78
2023-01-20T20:23:14.254Z,102480.00
2023-01-20T20:25:49.865Z,102486.91
2023-01-20T20:28:19.509Z,102503.38
2023-01-20T20:30:47.786Z,102484.50
2023-01-20T20:33:17.562Z,102496.06
2023-01-20T20:35:47.402Z,102504.81
2023-01-20T20:38:15.648Z,102504.78
2023-01-20T20:40:43.747Z,102529.22
2023-01-20T20:43:11.953Z,102533.66
2023-01-20T20:45:42.940Z,102524.88
2023-01-20T20:48:11.073Z,102531.88
2023-01-20T20:50:39.445Z,102552.78
2023-01-20T20:53:08.248Z,102545.06
2023-01-20T20:55:40.758Z,102526.03
2023-01-20T20:58:21.075Z,102534.94
2023-01-20T21:01:17.068Z,102558.09
2023-01-20T21:03:47.058Z,102559.97
2023-01-20T21:06:18.154Z,102567.28
2023-01-20T21:08:46.889Z,102563.56
2023-01-20T21:11:14.968Z,102564.78
2023-01-20T21:13:48.878Z,102567.44
2023-01-20T21:16:33.081Z,102579.13
2023-01-20T21:19:07.458Z,102585.34
2023-01-20T21:21:54.932Z,102570.22
2023-01-20T21:24:29.022Z,102601.53
2023-01-20T21:27:17.047Z,102600.59
2023-01-20T21:30:09.969Z,102596.41
2023-01-20T21:32:41.465Z,102594.19
2023-01-20T21:35:10.714Z,102585.59
2023-01-20T21:37:39.060Z,102559.84
2023-01-20T21:40:15.844Z,102599.59
2023-01-20T21:42:43.918Z,102603.81
2023-01-20T21:45:11.708Z,102600.00
2023-01-20T21:47:41.361Z,102594.69
2023-01-20T21:50:29.766Z,102609.41
2023-01-20T21:52:58.072Z,102603.91
2023-01-20T21:55:29.002Z,102593.22
2023-01-20T21:57:56.925Z,102606.28
2023-01-20T22:00:25.306Z,102599.19
2023-01-20T22:02:54.642Z,102601.94
2023-01-20T22:05:22.973Z,102584.25
2023-01-20T22:07:50.996Z,102597.88
2023-01-20T22:10:22.821Z,102607.13
2023-01-20T22:12:52.392Z,102590.09
2023-01-20T22:15:21.853Z,102592.44
2023-01-20T22:17:50.073Z,102598.94
2023-01-20T22:20:22.220Z,102591.13
2023-01-20T22:22:50.525Z,102596.59
2023-01-20T22:25:19.604Z,102600.72
2023-01-20T22:27:49.206Z,102598.06
2023-01-20T22:30:18.909Z,102603.09
2023-01-20T22:32:48.150Z,102601.81
2023-01-20T22:35:16.360Z,102601.47
2023-01-20T22:37:45.935Z,102599.16
2023-01-20T22:40:14.418Z,102594.25
2023-01-20T22:42:44.089Z,102575.44
2023-01-20T22:45:12.830Z,102585.44
2023-01-20T22:47:49.715Z,102554.31
2023-01-20T22:50:19.172Z,102587.28
2023-01-20T22:52:49.951Z,102580.22
2023-01-20T22:55:25.926Z,102571.59
2023-01-20T22:58:02.962Z,102585.88
2023-01-20T23:00:31.231Z,102579.47
2023-01-20T23:02:59.394Z,102569.91
2023-01-20T23:05:33.382Z,102589.06
2023-01-20T23:08:08.959Z,102585.69
2023-01-20T23:10:49.120Z,102588.41
2023-01-20T23:13:23.712Z,102593.28
2023-01-20T23:15:52.253Z,102592.63
2023-01-20T23:18:21.244Z,102581.75
2023-01-20T23:20:49.888Z,102593.94
2023-01-20T23:23:21.173Z,102587.41
2023-01-20T23:25:49.999Z,102592.41
2023-01-20T23:28:19.315Z,102573.19
2023-01-20T23:30:47.313Z,102594.38
2023-01-20T23:33:15.699Z,102588.34
2023-01-20T23:35:46.801Z,102599.47
2023-01-20T23:38:18.190Z,102582.53
2023-01-20T23:40:51.576Z,102591.50
2023-01-20T23:43:19.441Z,102590.94
2023-01-20T23:45:52.177Z,102595.25
2023-01-20T23:48:20.650Z,102604.91
2023-01-20T23:50:48.664Z,102612.69
2023-01-20T23:53:17.220Z,102609.16
2023-01-20T23:55:45.839Z,102626.06
2023-01-20T23:58:15.729Z,102622.84
